Flight Track Log - Related Links

Times and Time Zones

All times are in EDT time to prevent confusion due to time zone crossing. See the LAN2511 flight status page for this flight to view local times or setup timezone preferences in your user account.

Time Position Orientation Groundspeed Altitude Reporting Facility
EDT Latitude Longitude Course Direction KTS MPH feet Rate Location/Type
Tue 01:02:04 AM 25.8019 -80.2583 89° East 162 186 1,000  Level Miami Center
Tue 01:02:28 AM 25.8022 -80.2444 81° East 170 196 1,400 1,683 Climbing Miami Center
Tue 01:03:26 AM 25.7692 -80.1844 121° Southeast 232 267 3,300 2,542 Climbing Miami Center
Tue 01:04:26 AM 25.7056 -80.1456 151° Southeast 273 314 6,400 3,200 Climbing Miami Center
Tue 01:05:26 AM 25.6300 -80.1658 194° South 286 329 9,700 2,750 Climbing Miami Center
Tue 01:06:26 AM 25.5519 -80.2083 206° Southwest 312 359 11,900 2,410 Climbing Miami Center
Tue 01:07:28 AM 25.4653 -80.2578 207° Southwest 343 395 14,600 2,628 Climbing Miami Center
Tue 01:08:27 AM 25.3733 -80.3067 206° Southwest 360 414 17,200 2,508 Climbing Miami Center
Tue 01:09:30 AM 25.2786 -80.3586 206° Southwest 376 433 19,700 2,350 Climbing Miami Center
Tue 01:10:27 AM 25.1811 -80.4128 207° Southwest 387 445 21,900 2,136 Climbing Miami Center
Tue 01:11:28 AM 25.0817 -80.4692 207° Southwest 397 457 23,900 1,884 Climbing Miami Center
Tue 01:12:28 AM 25.0108 -80.5739 233° Southwest 418 481 25,700 1,707 Climbing Miami Center
Tue 01:13:31 AM 24.9461 -80.6850 237° Southwest 425 489 27,400 1,700 Climbing Miami Center
Tue 01:14:28 AM 24.8822 -80.8039 239° Southwest 439 505 29,100 1,424 Climbing Miami Center
Tue 01:15:29 AM 24.8350 -80.9308 248° West 453 521 30,200 1,240 Climbing Miami Center
Tue 01:16:29 AM 24.7800 -81.0628 245° Southwest 474 545 31,600 1,388 Climbing Miami Center
Tue 01:17:30 AM 24.7206 -81.1897 243° Southwest 470 541 33,000 645 Climbing Miami Center
Tue 01:18:30 AM 24.6622 -81.3178 243° Southwest 468 539 32,900  Descending Miami Center
Tue 01:19:32 AM 24.6014 -81.4425 242° Southwest 465 535 33,000  Climbing Miami Center
Tue 01:20:30 AM 24.5331 -81.5650 239° Southwest 479 551 32,900  Descending Miami Center
Tue 01:21:30 AM 24.4217 -81.6475 214° Southwest 473 544 33,000  Climbing Miami Center
Tue 01:22:31 AM 24.3025 -81.6692 189° South 455 524 32,900 -50 Descending Miami Center
Tue 01:23:31 AM 24.1761 -81.6425 169° South 457 526 32,900 49 Level Miami Center
Tue 01:24:33 AM 24.0506 -81.6175 170° South 457 526 33,000 50 Climbing Miami Center
Tue 01:25:31 AM 23.9242 -81.5911 169° South 459 528 33,000  Level Miami Center
Tue 01:27:00 AM 23.7374 -81.5566 172° South  Level FlightAware Approximate
Tue 01:34:00 AM 22.8614 -81.4991 196° South  Level FlightAware Approximate
Tue 01:35:00 AM 22.7395 -81.5376 196° South  Level FlightAware Approximate
Tue 01:36:00 AM 22.6175 -81.5761 196° South  Level FlightAware Approximate
Tue 01:37:00 AM 22.4956 -81.6146 196° South  Level FlightAware Approximate
Tue 01:38:00 AM 22.3737 -81.6532 197° South  Level FlightAware Approximate
Tue 01:39:00 AM 22.2523 -81.6937 197° South  Level FlightAware Approximate
Tue 01:40:00 AM 22.1310 -81.7341 197° South  Level FlightAware Approximate
Tue 01:41:00 AM 22.0096 -81.7745 197° South  Level FlightAware Approximate
Tue 01:42:00 AM 21.8882 -81.8147 197° South  Level FlightAware Approximate
Tue 01:43:00 AM 21.7668 -81.8549 197° South  Level FlightAware Approximate
Tue 01:44:00 AM 21.6454 -81.8951 197° South  Level FlightAware Approximate
Tue 01:45:00 AM 21.5240 -81.9351 197° South  Level FlightAware Approximate
Tue 01:46:00 AM 21.4026 -81.9751 197° South  Level FlightAware Approximate
Tue 01:47:00 AM 21.2811 -82.0151 197° South  Level FlightAware Approximate
Tue 01:48:00 AM 21.1597 -82.0549 197° South  Level FlightAware Approximate
Tue 01:49:00 AM 21.0382 -82.0948 197° South  Level FlightAware Approximate
Tue 01:50:00 AM 20.9167 -82.1345 197° South  Level FlightAware Approximate
Tue 01:51:00 AM 20.7953 -82.1742 197° South  Level FlightAware Approximate
Tue 01:52:00 AM 20.6738 -82.2138 197° South  Level FlightAware Approximate
Tue 01:53:00 AM 20.5523 -82.2533 197° South  Level FlightAware Approximate
Tue 01:54:00 AM 20.4308 -82.2928 197° South  Level FlightAware Approximate
Tue 01:55:00 AM 20.3093 -82.3323 197° South  Level FlightAware Approximate
Tue 01:56:00 AM 20.1878 -82.3716 197° South  Level FlightAware Approximate
Tue 01:57:00 AM 20.0648 -82.4004 192° South  Level FlightAware Approximate
Tue 01:58:00 AM 19.9405 -82.4286 192° South  Level FlightAware Approximate
Tue 01:59:00 AM 19.8163 -82.4566 192° South  Level FlightAware Approximate
Tue 02:00:00 AM 19.6921 -82.4847 192° South  Level FlightAware Approximate
Tue 02:01:00 AM 19.5678 -82.5126 192° South  Level FlightAware Approximate
Tue 02:02:00 AM 19.4436 -82.5409 192° South  Level FlightAware Approximate
Tue 02:03:00 AM 19.3195 -82.5693 192° South  Level FlightAware Approximate
Tue 02:04:00 AM 19.1953 -82.5975 192° South  Level FlightAware Approximate
Tue 02:05:00 AM 19.0711 -82.6257 192° South  Level FlightAware Approximate
Tue 02:06:00 AM 18.9470 -82.6539 192° South  Level FlightAware Approximate
Tue 02:07:00 AM 18.8228 -82.6821 192° South  Level FlightAware Approximate
Tue 02:08:00 AM 18.6986 -82.7102 192° South  Level FlightAware Approximate
Tue 02:09:00 AM 18.5744 -82.7382 192° South  Level FlightAware Approximate
Tue 02:10:00 AM 18.4502 -82.7663 192° South  Level FlightAware Approximate
Tue 02:11:00 AM 18.3260 -82.7942 192° South  Level FlightAware Approximate
Tue 02:12:00 AM 18.2018 -82.8222 192° South  Level FlightAware Approximate
Tue 02:13:00 AM 18.0776 -82.8501 192° South  Level FlightAware Approximate
Tue 02:14:00 AM 17.9534 -82.8779 192° South  Level FlightAware Approximate
Tue 02:15:00 AM 17.8291 -82.9057 192° South  Level FlightAware Approximate
Tue 02:16:00 AM 17.7049 -82.9335 192° South  Level FlightAware Approximate
Tue 02:17:00 AM 17.5807 -82.9613 192° South  Level FlightAware Approximate
Tue 02:18:00 AM 17.4565 -82.9890 192° South  Level FlightAware Approximate
Tue 02:19:00 AM 17.3323 -83.0166 192° South  Level FlightAware Approximate
Tue 02:20:00 AM 17.2080 -83.0443 192° South  Level FlightAware Approximate
Tue 02:21:00 AM 17.0838 -83.0719 192° South  Level FlightAware Approximate
Tue 02:22:00 AM 16.9595 -83.0994 192° South  Level FlightAware Approximate
Tue 02:23:00 AM 16.8353 -83.1269 192° South  Level FlightAware Approximate
Tue 02:24:00 AM 16.7110 -83.1544 192° South  Level FlightAware Approximate
Tue 02:25:00 AM 16.5868 -83.1818 192° South  Level FlightAware Approximate
Tue 02:26:00 AM 16.4625 -83.2093 192° South  Level FlightAware Approximate
Tue 02:27:00 AM 16.3382 -83.2366 192° South  Level FlightAware Approximate
Tue 02:28:00 AM 16.2140 -83.2640 192° South  Level FlightAware Approximate
Tue 02:29:00 AM 16.0897 -83.2913 192° South  Level FlightAware Approximate
Tue 02:30:00 AM 15.9730 -83.2592 153° Southeast  Level FlightAware Approximate
Tue 02:31:00 AM 15.8598 -83.1994 153° Southeast  Level FlightAware Approximate
Tue 02:32:00 AM 15.7465 -83.1396 153° Southeast  Level FlightAware Approximate
Tue 02:33:00 AM 15.6333 -83.0798 153° Southeast  Level FlightAware Approximate
Tue 02:34:00 AM 15.5200 -83.0202 153° Southeast  Level FlightAware Approximate
Tue 02:35:00 AM 15.4068 -82.9606 153° Southeast  Level FlightAware Approximate
Tue 02:36:00 AM 15.2935 -82.9010 153° Southeast  Level FlightAware Approximate
Tue 02:37:00 AM 15.1802 -82.8416 153° Southeast  Level FlightAware Approximate
Tue 02:38:00 AM 15.0668 -82.7822 153° Southeast  Level FlightAware Approximate
Tue 02:39:00 AM 14.9535 -82.7228 153° Southeast  Level FlightAware Approximate
Tue 02:40:00 AM 14.8402 -82.6635 153° Southeast  Level FlightAware Approximate
Tue 02:41:00 AM 14.7268 -82.6043 153° Southeast  Level FlightAware Approximate
Tue 02:42:00 AM 14.6134 -82.5452 153° Southeast  Level FlightAware Approximate
Tue 02:43:00 AM 14.5000 -82.4861 153° Southeast  Level FlightAware Approximate
Tue 02:44:00 AM 14.3866 -82.4270 153° Southeast  Level FlightAware Approximate
Tue 02:45:00 AM 14.2734 -82.3676 153° Southeast  Level FlightAware Approximate
Tue 02:46:00 AM 14.1602 -82.3082 153° Southeast  Level FlightAware Approximate
Tue 02:47:00 AM 14.0470 -82.2488 153° Southeast  Level FlightAware Approximate
Tue 02:48:00 AM 13.9338 -82.1895 153° Southeast  Level FlightAware Approximate
Tue 02:49:00 AM 13.8206 -82.1302 153° Southeast  Level FlightAware Approximate
Tue 02:50:00 AM 13.7073 -82.0710 153° Southeast  Level FlightAware Approximate
Tue 02:51:00 AM 13.5941 -82.0118 153° Southeast  Level FlightAware Approximate
Tue 02:52:00 AM 13.4808 -81.9527 153° Southeast  Level FlightAware Approximate
Tue 02:53:00 AM 13.3675 -81.8936 153° Southeast  Level FlightAware Approximate
Tue 02:54:00 AM 13.2543 -81.8347 153° Southeast  Level FlightAware Approximate
Tue 02:55:00 AM 13.1410 -81.7757 153° Southeast  Level FlightAware Approximate
Tue 02:56:00 AM 13.0276 -81.7168 153° Southeast  Level FlightAware Approximate
Tue 02:57:00 AM 12.9143 -81.6580 153° Southeast  Level FlightAware Approximate
Tue 02:58:00 AM 12.8010 -81.5992 153° Southeast  Level FlightAware Approximate
Tue 02:59:00 AM 12.6876 -81.5405 153° Southeast  Level FlightAware Approximate
Tue 03:00:00 AM 12.5742 -81.4818 153° Southeast  Level FlightAware Approximate
Tue 03:01:00 AM 12.4608 -81.4232 153° Southeast  Level FlightAware Approximate
Tue 03:02:00 AM 12.3474 -81.3647 153° Southeast  Level FlightAware Approximate
Tue 03:03:00 AM 12.2340 -81.3062 153° Southeast  Level FlightAware Approximate
Tue 03:04:00 AM 12.1206 -81.2477 153° Southeast  Level FlightAware Approximate
Tue 03:05:00 AM 12.0072 -81.1893 153° Southeast  Level FlightAware Approximate
Tue 03:06:00 AM 11.8937 -81.1309 153° Southeast  Level FlightAware Approximate
Tue 03:07:00 AM 11.7803 -81.0726 153° Southeast  Level FlightAware Approximate
Tue 03:08:00 AM 11.6668 -81.0143 153° Southeast  Level FlightAware Approximate
Tue 03:09:00 AM 11.5533 -80.9561 153° Southeast  Level FlightAware Approximate
Tue 03:10:00 AM 11.4398 -80.8979 153° Southeast  Level FlightAware Approximate
Tue 03:11:00 AM 11.3263 -80.8398 153° Southeast  Level FlightAware Approximate
Tue 03:12:00 AM 11.2128 -80.7817 153° Southeast  Level FlightAware Approximate
Tue 03:13:00 AM 11.0993 -80.7237 153° Southeast  Level FlightAware Approximate
Tue 03:14:00 AM 10.9857 -80.6657 153° Southeast  Level FlightAware Approximate
Tue 03:15:00 AM 10.8722 -80.6077 153° Southeast  Level FlightAware Approximate
Tue 03:16:00 AM 10.7586 -80.5498 153° Southeast  Level FlightAware Approximate
Tue 03:17:00 AM 10.6451 -80.4920 153° Southeast  Level FlightAware Approximate
Tue 03:18:00 AM 10.5315 -80.4342 153° Southeast  Level FlightAware Approximate
Tue 03:19:00 AM 10.4179 -80.3764 153° Southeast  Level FlightAware Approximate
Tue 03:20:00 AM 10.3043 -80.3186 153° Southeast  Level FlightAware Approximate
Tue 03:21:00 AM 10.1907 -80.2609 153° Southeast  Level FlightAware Approximate
Tue 03:22:00 AM 10.0770 -80.2033 153° Southeast  Level FlightAware Approximate
Tue 03:23:00 AM 9.9634 -80.1457 153° Southeast  Level FlightAware Approximate
Tue 03:24:00 AM 9.8498 -80.0881 153° Southeast  Level FlightAware Approximate
Tue 03:25:00 AM 9.7361 -80.0306 153° Southeast  Level FlightAware Approximate
Tue 03:26:00 AM 9.6224 -79.9731 153° Southeast  Level FlightAware Approximate
Tue 03:27:00 AM 9.5088 -79.9157 154° Southeast  Level FlightAware Approximate
Tue 03:28:00 AM 9.3951 -79.8583 154° Southeast  Level FlightAware Approximate
Tue 03:29:00 AM 9.2814 -79.8009 154° Southeast  Level FlightAware Approximate
Tue 03:30:00 AM 9.1677 -79.7435 154° Southeast  Level FlightAware Approximate
Tue 03:31:00 AM 9.0540 -79.6862 154° Southeast  Level FlightAware Approximate
Tue 03:32:00 AM 8.9403 -79.6290 154° Southeast  Level FlightAware Approximate
Tue 03:33:00 AM 8.8266 -79.5717 154° Southeast  Level FlightAware Approximate
Tue 03:34:00 AM 8.7046 -79.5529 182° South  Level FlightAware Approximate
Tue 03:35:00 AM 8.5777 -79.5575 182° South  Level FlightAware Approximate
Tue 03:36:00 AM 8.4508 -79.5621 182° South  Level FlightAware Approximate
Tue 03:37:00 AM 8.3239 -79.5667 182° South  Level FlightAware Approximate
Tue 03:38:00 AM 8.1969 -79.5713 182° South  Level FlightAware Approximate
Tue 03:39:00 AM 8.0700 -79.5760 182° South  Level FlightAware Approximate
Tue 03:40:00 AM 7.9431 -79.5806 182° South  Level FlightAware Approximate
Tue 03:41:00 AM 7.8162 -79.5843 181° South  Level FlightAware Approximate
Tue 03:42:00 AM 7.6892 -79.5866 181° South  Level FlightAware Approximate
Tue 03:43:00 AM 7.5622 -79.5890 181° South  Level FlightAware Approximate
Tue 03:44:00 AM 7.4352 -79.5913 181° South  Level FlightAware Approximate
Tue 03:45:00 AM 7.3082 -79.5937 181° South  Level FlightAware Approximate
Tue 03:46:00 AM 7.1812 -79.5960 181° South  Level FlightAware Approximate
Tue 03:47:00 AM 7.0542 -79.5984 181° South  Level FlightAware Approximate
Tue 03:48:00 AM 6.9273 -79.6015 182° South  Level FlightAware Approximate
Tue 03:49:00 AM 6.8004 -79.6062 182° South  Level FlightAware Approximate
Tue 03:50:00 AM 6.6734 -79.6109 182° South  Level FlightAware Approximate
Tue 03:51:00 AM 6.5465 -79.6156 182° South  Level FlightAware Approximate
Tue 03:52:00 AM 6.4196 -79.6203 182° South  Level FlightAware Approximate
Tue 03:53:00 AM 6.2927 -79.6250 182° South  Level FlightAware Approximate
Tue 03:54:00 AM 6.1658 -79.6297 182° South  Level FlightAware Approximate
Tue 03:55:00 AM 6.0388 -79.6344 182° South  Level FlightAware Approximate
Tue 03:56:00 AM 5.9119 -79.6391 182° South  Level FlightAware Approximate
Tue 03:57:00 AM 5.7850 -79.6438 182° South  Level FlightAware Approximate
Tue 03:58:00 AM 5.6581 -79.6485 182° South  Level FlightAware Approximate
Tue 03:59:00 AM 5.5311 -79.6532 182° South  Level FlightAware Approximate
Tue 04:00:00 AM 5.4042 -79.6579 182° South  Level FlightAware Approximate
Tue 04:01:00 AM 5.2773 -79.6626 182° South  Level FlightAware Approximate
Tue 04:02:00 AM 5.1504 -79.6670 181° South  Level FlightAware Approximate
Tue 04:03:00 AM 5.0234 -79.6699 181° South  Level FlightAware Approximate
Tue 04:04:00 AM 4.8964 -79.6728 181° South  Level FlightAware Approximate
Tue 04:05:00 AM 4.7695 -79.6757 181° South  Level FlightAware Approximate
Tue 04:06:00 AM 4.6425 -79.6785 181° South  Level FlightAware Approximate
Tue 04:07:00 AM 4.5155 -79.6814 181° South  Level FlightAware Approximate
Tue 04:08:00 AM 4.3885 -79.6842 181° South  Level FlightAware Approximate
Tue 04:09:00 AM 4.2616 -79.6871 181° South  Level FlightAware Approximate
Tue 04:10:00 AM 4.1346 -79.6900 181° South  Level FlightAware Approximate
Tue 04:11:00 AM 4.0076 -79.6928 181° South  Level FlightAware Approximate
Tue 04:12:00 AM 3.8806 -79.6957 181° South  Level FlightAware Approximate
Tue 04:13:00 AM 3.7537 -79.6986 181° South  Level FlightAware Approximate
Tue 04:14:00 AM 3.6267 -79.7014 181° South  Level FlightAware Approximate
Tue 04:15:00 AM 3.4997 -79.7043 181° South  Level FlightAware Approximate
Tue 04:16:00 AM 3.3727 -79.7072 181° South  Level FlightAware Approximate
Tue 04:17:00 AM 3.2458 -79.7100 181° South  Level FlightAware Approximate
Tue 04:18:00 AM 3.1188 -79.7129 181° South  Level FlightAware Approximate
Tue 04:19:00 AM 2.9918 -79.7157 181° South  Level FlightAware Approximate
Tue 04:20:00 AM 2.8648 -79.7189 182° South  Level FlightAware Approximate
Tue 04:21:00 AM 2.7379 -79.7223 182° South  Level FlightAware Approximate
Tue 04:22:00 AM 2.6109 -79.7256 182° South  Level FlightAware Approximate
Tue 04:23:00 AM 2.4839 -79.7290 182° South  Level FlightAware Approximate
Tue 04:24:00 AM 2.3570 -79.7323 182° South  Level FlightAware Approximate
Tue 04:25:00 AM 2.2300 -79.7356 182° South  Level FlightAware Approximate
Tue 04:26:00 AM 2.1031 -79.7390 182° South  Level FlightAware Approximate
Tue 04:27:00 AM 1.9761 -79.7423 182° South  Level FlightAware Approximate
Tue 04:28:00 AM 1.8491 -79.7457 182° South  Level FlightAware Approximate
Tue 04:29:00 AM 1.7222 -79.7490 182° South  Level FlightAware Approximate
Tue 04:30:00 AM 1.5952 -79.7523 182° South  Level FlightAware Approximate
Tue 04:31:00 AM 1.4683 -79.7557 182° South  Level FlightAware Approximate
Tue 04:32:00 AM 1.3413 -79.7590 182° South  Level FlightAware Approximate
Tue 04:33:00 AM 1.2143 -79.7624 182° South  Level FlightAware Approximate
Tue 04:34:00 AM 1.0874 -79.7657 182° South  Level FlightAware Approximate
Tue 04:35:00 AM 0.9604 -79.7691 182° South  Level FlightAware Approximate
Tue 04:36:00 AM 0.8334 -79.7724 182° South  Level FlightAware Approximate
Tue 04:37:00 AM 0.7065 -79.7757 182° South  Level FlightAware Approximate
Tue 04:38:00 AM 0.5795 -79.7791 182° South  Level FlightAware Approximate
Tue 04:39:00 AM 0.4525 -79.7824 182° South  Level FlightAware Approximate
Tue 04:40:00 AM 0.3256 -79.7858 182° South  Level FlightAware Approximate
Tue 04:41:00 AM 0.1986 -79.7891 182° South  Level FlightAware Approximate
Tue 04:42:00 AM 0.0717 -79.7924 182° South  Level FlightAware Approximate
Tue 04:43:00 AM -0.0553 -79.7958 182° South  Level FlightAware Approximate
Tue 04:44:00 AM -0.1823 -79.7991 182° South  Level FlightAware Approximate
Tue 04:45:00 AM -0.3092 -79.8024 182° South  Level FlightAware Approximate
Tue 04:46:00 AM -0.4362 -79.8058 182° South  Level FlightAware Approximate
Tue 04:47:00 AM -0.5631 -79.8091 182° South  Level FlightAware Approximate
Tue 04:48:00 AM -0.6901 -79.8125 182° South  Level FlightAware Approximate
Tue 04:49:00 AM -0.8171 -79.8158 182° South  Level FlightAware Approximate
Tue 04:50:00 AM -0.9440 -79.8191 182° South  Level FlightAware Approximate
Tue 04:51:00 AM -1.0710 -79.8225 182° South  Level FlightAware Approximate
Tue 04:52:00 AM -1.1980 -79.8258 182° South  Level FlightAware Approximate
Tue 04:53:00 AM -1.3249 -79.8292 182° South  Level FlightAware Approximate
Tue 04:54:00 AM -1.4519 -79.8325 182° South  Level FlightAware Approximate
Tue 04:55:00 AM -1.5789 -79.8358 182° South  Level FlightAware Approximate
Tue 04:56:00 AM -1.7058 -79.8392 182° South  Level FlightAware Approximate
Tue 04:57:00 AM -1.8328 -79.8425 182° South  Level FlightAware Approximate
Tue 04:58:00 AM -1.9597 -79.8459 182° South  Level FlightAware Approximate
Tue 04:59:00 AM -2.0867 -79.8492 182° South  Level FlightAware Approximate
Tue 05:00:00 AM -2.2109 -79.8268 166° South  Level FlightAware Approximate
Tue 05:01:00 AM -2.3342 -79.7964 166° South  Level FlightAware Approximate
Tue 05:02:00 AM -2.4575 -79.7660 166° South  Level FlightAware Approximate
Tue 05:03:00 AM -2.5808 -79.7355 166° South  Level FlightAware Approximate
Tue 05:04:00 AM -2.7042 -79.7051 166° South  Level FlightAware Approximate
Tue 05:05:00 AM -2.8275 -79.6747 166° South  Level FlightAware Approximate
Tue 05:06:00 AM -2.9508 -79.6443 166° South  Level FlightAware Approximate
Tue 05:07:00 AM -3.0741 -79.6138 166° South  Level FlightAware Approximate
Tue 05:08:00 AM -3.1974 -79.5834 166° South  Level FlightAware Approximate
Tue 05:09:00 AM -3.3207 -79.5529 166° South  Level FlightAware Approximate
Tue 05:10:00 AM -3.4440 -79.5224 166° South  Level FlightAware Approximate
Tue 05:11:00 AM -3.5674 -79.4920 166° South  Level FlightAware Approximate
Tue 05:12:00 AM -3.6907 -79.4615 166° South  Level FlightAware Approximate
Tue 05:13:00 AM -3.8140 -79.4310 166° South  Level FlightAware Approximate
Tue 05:14:00 AM -3.9373 -79.4005 166° South  Level FlightAware Approximate
Tue 05:15:00 AM -4.0606 -79.3700 166° South  Level FlightAware Approximate
Tue 05:16:00 AM -4.1839 -79.3395 166° South  Level FlightAware Approximate
Tue 05:17:00 AM -4.3072 -79.3090 166° South  Level FlightAware Approximate
Tue 05:18:00 AM -4.4305 -79.2784 166° South  Level FlightAware Approximate
Tue 05:19:00 AM -4.5538 -79.2479 166° South  Level FlightAware Approximate
Tue 05:20:00 AM -4.6771 -79.2173 166° South  Level FlightAware Approximate
Tue 05:21:00 AM -4.8004 -79.1868 166° South  Level FlightAware Approximate
Tue 05:22:00 AM -4.9237 -79.1562 166° South  Level FlightAware Approximate
Tue 05:23:00 AM -5.0470 -79.1256 166° South  Level FlightAware Approximate
Tue 05:24:00 AM -5.1703 -79.0950 166° South  Level FlightAware Approximate
Tue 05:25:00 AM -5.2936 -79.0644 166° South  Level FlightAware Approximate
Tue 05:26:00 AM -5.4169 -79.0338 166° South  Level FlightAware Approximate
Tue 05:27:00 AM -5.5402 -79.0031 166° South  Level FlightAware Approximate
Tue 05:28:00 AM -5.6635 -78.9725 166° South  Level FlightAware Approximate
Tue 05:29:00 AM -5.7867 -78.9418 166° South  Level FlightAware Approximate
Tue 05:30:00 AM -5.9100 -78.9111 166° South  Level FlightAware Approximate
Tue 05:31:00 AM -6.0333 -78.8804 166° South  Level FlightAware Approximate
Tue 05:32:00 AM -6.1566 -78.8497 166° South  Level FlightAware Approximate
Tue 05:33:00 AM -6.2799 -78.8190 166° South  Level FlightAware Approximate
Tue 05:34:00 AM -6.4032 -78.7883 166° South  Level FlightAware Approximate
Tue 05:35:00 AM -6.5264 -78.7575 166° South  Level FlightAware Approximate
Tue 05:36:00 AM -6.6497 -78.7268 166° South  Level FlightAware Approximate
Tue 05:37:00 AM -6.7730 -78.6960 166° South  Level FlightAware Approximate
Tue 05:38:00 AM -6.8963 -78.6652 166° South  Level FlightAware Approximate
Tue 05:39:00 AM -7.0195 -78.6344 166° South  Level FlightAware Approximate
Tue 05:40:00 AM -7.1428 -78.6036 166° South  Level FlightAware Approximate
Tue 05:41:00 AM -7.2661 -78.5727 166° South  Level FlightAware Approximate
Tue 05:42:00 AM -7.3893 -78.5419 166° South  Level FlightAware Approximate
Tue 05:43:00 AM -7.5126 -78.5110 166° South  Level FlightAware Approximate
Tue 05:44:00 AM -7.6358 -78.4801 166° South  Level FlightAware Approximate
Tue 05:45:00 AM -7.7591 -78.4492 166° South  Level FlightAware Approximate
Tue 05:46:00 AM -7.8824 -78.4183 166° South  Level FlightAware Approximate
Tue 05:47:00 AM -8.0056 -78.3873 166° South  Level FlightAware Approximate
Tue 05:48:00 AM -8.1289 -78.3563 166° South  Level FlightAware Approximate
Tue 05:49:00 AM -8.2521 -78.3253 166° South  Level FlightAware Approximate
Tue 05:50:00 AM -8.3754 -78.2943 166° South  Level FlightAware Approximate
Tue 05:51:00 AM -8.4986 -78.2633 166° South  Level FlightAware Approximate
Tue 05:52:00 AM -8.6218 -78.2323 166° South  Level FlightAware Approximate
Tue 05:53:00 AM -8.7451 -78.2012 166° South  Level FlightAware Approximate
Tue 05:54:00 AM -8.8683 -78.1701 166° South  Level FlightAware Approximate
Tue 05:55:00 AM -8.9916 -78.1390 166° South  Level FlightAware Approximate
Tue 05:56:00 AM -9.1148 -78.1079 166° South  Level FlightAware Approximate
Tue 05:57:00 AM -9.2380 -78.0767 166° South  Level FlightAware Approximate
Tue 05:58:00 AM -9.3612 -78.0456 166° South  Level FlightAware Approximate
Tue 05:59:00 AM -9.4845 -78.0144 166° South  Level FlightAware Approximate
Tue 06:00:00 AM -9.6077 -77.9832 166° South  Level FlightAware Approximate
Tue 06:01:00 AM -9.7309 -77.9519 166° South  Level FlightAware Approximate
Tue 06:02:00 AM -9.8541 -77.9207 166° South  Level FlightAware Approximate
Tue 06:03:00 AM -9.9773 -77.8894 166° South  Level FlightAware Approximate
Tue 06:04:00 AM -10.1008 -77.8591 168° South  Level FlightAware Approximate
Tue 06:05:00 AM -10.2248 -77.8313 166° South  Level FlightAware Approximate
Tue 06:06:00 AM -10.3481 -77.8005 166° South  Level FlightAware Approximate
Tue 06:07:00 AM -10.4721 -77.7728 165° South  Level FlightAware Approximate
Tue 06:08:00 AM -10.5948 -77.7393 165° South  Level FlightAware Approximate
Tue 06:09:00 AM -10.7186 -77.7107 168° South  Level FlightAware Approximate
Tue 06:10:00 AM -10.8397 -77.6726 160° South  Level FlightAware Approximate
Tue 06:11:00 AM -10.9609 -77.6348 166° South  Level FlightAware Approximate
Tue 06:12:00 AM -11.0848 -77.6064 169° South  Level FlightAware Approximate
Tue 06:13:00 AM -11.2094 -77.5815 169° South  Level FlightAware Approximate
Tue 06:14:00 AM -11.3266 -77.5378 147° Southeast  Level FlightAware Approximate
Tue 06:15:00 AM -11.4348 -77.4699 149° Southeast  Level FlightAware Approximate
Tue 06:16:00 AM -11.5427 -77.4016 148° Southeast  Level FlightAware Approximate
Tue 06:17:00 AM -11.6505 -77.3330 147° Southeast  Level FlightAware Approximate
Tue 06:18:00 AM -11.7609 -77.2695 154° Southeast  Level FlightAware Approximate
Tue 06:19:00 AM -11.8612 -77.2018 162° South  Level FlightAware Approximate
Tue 06:20:00 AM -11.9693 -77.1356 159° South  Level FlightAware Approximate
Tue 06:21:00 AM -12.0167 -77.1167 159° South  Level FlightAware Approximate
Tue 06:22:00 AM -12.0219 -77.1143 159° South  Level Estimated
Tue 06:23:00 AM -12.0167 -77.1167 159° South  Level FlightAware Approximate
Tue 06:24:00 AM -12.0219 -77.1143 159° South  Level Estimated
Tue 06:25:00 AM -12.0167 -77.1167 159° South  Level FlightAware Approximate
Tue 06:26:00 AM -12.0219 -77.1143 159° South  Level Estimated
Tue 06:27:00 AM -12.0167 -77.1167 159° South  Level FlightAware Approximate
Tue 06:28:00 AM -12.0219 -77.1143 159° South  Level Estimated
Tue 06:29:00 AM -12.0167 -77.1167 159° South  Level FlightAware Approximate
Tue 06:30:00 AM -12.0219 -77.1143 159° South  Level Estimated
Tue 06:31:00 AM -12.0167 -77.1167 159° South  Level FlightAware Approximate
Tue 06:32:00 AM -12.0219 -77.1143 159° South  Level Estimated
Tue 06:33:00 AM -12.0167 -77.1167 159° South  Level FlightAware Approximate

Login

Don't have an account? Register now (free) for customized features, flight alerts, and more!